Flat River, Missouri
Current Conditions -  °F | °C
As of 11:55 AM on Tuesday 21 Oct 2014 (Local Time) from KFAM Reporting Station
Clear Clear  
Wind Chill: 66°   Ceiling: Unl
Heat Index: 66°   Visibility: 10mi
Dew Point: 45°   Wind: 9mph
Humidity: 46%   Direction: 320°NW
Pressure: 30.14"   Gusts: NA
Location:  37.8688°N, 90.5931°W
Report Text: KFAM 211655Z AUTO 32008KT 10SM CLR 19/07 A3014 RMK AO1
Loading
Personal Weather Stations






























Interactive Weather Map
Tropical Storm Tracking
New forecast layout! Learn more

10-Day Weather Forecast

Advertisements
Track Severe Weather on mobile